Cedar Knolls, New Jersey
Current Conditions -  °F | °C
As of 5:15 AM on Tuesday 27 Jan 2015 (Local Time) from KMMU Reporting Station
Light Snow Light Snow  
Wind Chill: 12°   Ceiling: 2600
Heat Index: 25°   Visibility: 2.5mi
Dew Point: 16°   Wind: 15mph
Humidity: 69%   Direction: 350°N
Pressure: 29.7"   Gusts: 22mph
Location:  40.82°N, 74.45°W
Report Text: KMMU 271015Z AUTO 35013G19KT 2 1/2SM -SN OVC026 M04/M09 A2970 RMK AO2
Loading
Personal Weather Stations






























Interactive Weather Map New forecast layout! Learn more

10-Day Weather Forecast

Advertisements
Track Severe Weather on mobile